Time;durP1;ratioP1;P1;durP2;ratioP2;P2;SDS_P1;SDS_P2;PMS_P1;PMS_P2;Temp;Humidity;BMP_temperature;BMP_pressure;BME280_temperature;BME280_humidity;BME280_pressure;Samples;Min_cycle;Max_cycle;Signal;HPM_P1;HPM_P2
2021/12/07 00:01:43;;;;;;;6.78;4.40;;;;;;;;;;5034608;28;20024;-86
2021/12/07 00:04:08;;;;;;;6.65;4.32;;;;;;;;;;5048162;28;20056;-85
2021/12/07 00:06:35;;;;;;;6.95;4.43;;;;;;;;;;5026129;28;20026;-85
2021/12/07 00:09:04;;;;;;;8.35;4.65;;;;;;;;;;5049296;28;20498;-81
2021/12/07 00:11:30;;;;;;;7.13;4.53;;;;;;;;;;5050209;28;20446;-85
2021/12/07 00:13:57;;;;;;;7.57;4.85;;;;;;;;;;5030844;28;20484;-82
2021/12/07 00:16:24;;;;;;;8.35;5.05;;;;;;;;;;5030911;28;20514;-81
2021/12/07 00:18:50;;;;;;;7.85;4.93;;;;;;;;;;5033678;28;20111;-83
2021/12/07 00:21:17;;;;;;;7.90;5.35;;;;;;;;;;5051257;28;20108;-83
2021/12/07 00:23:45;;;;;;;8.75;5.50;;;;;;;;;;5040290;28;20021;-83
2021/12/07 00:26:12;;;;;;;8.02;5.55;;;;;;;;;;5046791;28;20029;-85
2021/12/07 00:28:38;;;;;;;8.75;5.78;;;;;;;;;;5028309;28;20392;-85
2021/12/07 00:31:12;;;;;;;9.00;5.82;;;;;;;;;;5023649;28;20041;-83
2021/12/07 00:33:53;;;;;;;7.97;5.20;;;;;;;;;;5025498;28;20500;-82
2021/12/07 00:36:19;;;;;;;9.02;5.68;;;;;;;;;;5044778;28;20028;-86
2021/12/07 00:38:45;;;;;;;9.63;6.32;;;;;;;;;;5033998;28;20029;-81
2021/12/07 00:41:10;;;;;;;9.50;6.18;;;;;;;;;;5024810;28;20033;-81
2021/12/07 00:43:36;;;;;;;9.35;6.13;;;;;;;;;;5033189;28;20031;-85
2021/12/07 00:46:02;;;;;;;8.77;5.72;;;;;;;;;;5046172;28;20033;-86
2021/12/07 00:48:29;;;;;;;8.82;5.47;;;;;;;;;;5030432;28;20037;-86
2021/12/07 00:50:56;;;;;;;9.43;6.25;;;;;;;;;;5049244;28;20028;-82
2021/12/07 00:53:23;;;;;;;8.43;6.10;;;;;;;;;;5048446;28;20024;-81
2021/12/07 00:55:52;;;;;;;10.38;6.40;;;;;;;;;;5030830;28;20409;-85
2021/12/07 00:58:22;;;;;;;9.23;6.13;;;;;;;;;;5032136;28;20546;-85
2021/12/07 01:00:54;;;;;;;10.10;6.75;;;;;;;;;;5027919;28;20032;-86
2021/12/07 01:03:20;;;;;;;11.90;7.75;;;;;;;;;;5034670;28;20033;-83
2021/12/07 01:05:52;;;;;;;10.23;7.43;;;;;;;;;;5027422;28;20598;-86
2021/12/07 01:08:37;;;;;;;11.52;7.88;;;;;;;;;;5025166;28;20029;-82
2021/12/07 01:24:44;;;;;;;12.85;8.00;;;;;;;;;;5047886;28;20385;-81
2021/12/07 01:27:15;;;;;;;11.63;7.63;;;;;;;;;;5041852;28;20021;-81
2021/12/07 01:29:44;;;;;;;12.55;8.07;;;;;;;;;;5048597;28;20472;-83
2021/12/07 01:43:24;;;;;;;11.13;7.10;;;;;;;;;;5045304;28;20040;-81
2021/12/07 01:46:03;;;;;;;11.73;7.95;;;;;;;;;;5045738;28;20496;-84
2021/12/07 02:01:41;;;;;;;11.68;6.93;;;;;;;;;;5053371;28;20086;-81
2021/12/07 02:04:07;;;;;;;11.85;8.15;;;;;;;;;;5056811;28;20053;-84
2021/12/07 02:06:32;;;;;;;13.85;7.68;;;;;;;;;;5041923;28;20072;-85
2021/12/07 02:08:58;;;;;;;10.30;7.18;;;;;;;;;;5053617;28;20025;-83
2021/12/07 02:11:23;;;;;;;12.00;7.75;;;;;;;;;;5054281;28;20538;-84
2021/12/07 02:16:16;;;;;;;13.50;7.72;;;;;;;;;;5051461;28;20033;-82
2021/12/07 02:18:42;;;;;;;14.05;7.65;;;;;;;;;;5044337;28;20048;-82
2021/12/07 02:21:16;;;;;;;12.73;7.70;;;;;;;;;;5048969;28;20033;-84
2021/12/07 02:23:42;;;;;;;12.40;8.18;;;;;;;;;;5052053;28;20577;-87
2021/12/07 02:26:07;;;;;;;12.55;7.70;;;;;;;;;;5043273;28;20120;-85
2021/12/07 02:28:38;;;;;;;12.80;7.78;;;;;;;;;;5048351;28;20036;-82
2021/12/07 02:31:04;;;;;;;11.77;7.68;;;;;;;;;;5050817;28;20021;-86
2021/12/07 02:33:31;;;;;;;12.05;7.15;;;;;;;;;;5048751;28;20029;-85
2021/12/07 02:35:57;;;;;;;12.38;7.55;;;;;;;;;;5054084;28;20074;-81
2021/12/07 02:38:22;;;;;;;11.18;8.18;;;;;;;;;;5052132;28;20017;-86
2021/12/07 02:40:48;;;;;;;11.88;7.68;;;;;;;;;;5046674;28;20084;-86
2021/12/07 02:43:13;;;;;;;10.73;7.07;;;;;;;;;;5041615;28;20032;-85
2021/12/07 02:45:39;;;;;;;14.02;8.00;;;;;;;;;;5044751;28;20099;-84
2021/12/07 02:48:04;;;;;;;12.23;7.68;;;;;;;;;;5048228;28;20369;-83
2021/12/07 02:50:30;;;;;;;11.63;7.57;;;;;;;;;;5040400;28;20518;-87
2021/12/07 02:52:55;;;;;;;10.95;7.63;;;;;;;;;;5037694;28;20059;-82
2021/12/07 02:55:21;;;;;;;12.50;7.97;;;;;;;;;;5051380;28;20033;-82
2021/12/07 02:57:47;;;;;;;11.00;7.53;;;;;;;;;;5045522;28;20021;-87
2021/12/07 03:00:20;;;;;;;12.35;7.50;;;;;;;;;;5050294;28;20021;-83
2021/12/07 03:03:10;;;;;;;11.77;7.53;;;;;;;;;;5051387;28;20033;-84
2021/12/07 03:27:26;;;;;;;13.93;3.97;;;;;;;;;;4965881;28;20078;-84
2021/12/07 03:29:51;;;;;;;10.15;2.72;;;;;;;;;;5048895;28;20060;-82
2021/12/07 03:32:17;;;;;;;8.02;2.72;;;;;;;;;;5033412;28;20389;-86
2021/12/07 03:34:43;;;;;;;7.53;2.80;;;;;;;;;;5034500;28;20029;-87
2021/12/07 03:37:08;;;;;;;5.40;1.88;;;;;;;;;;5032893;28;20060;-82
2021/12/07 03:39:34;;;;;;;7.50;2.15;;;;;;;;;;5032306;28;20025;-86
2021/12/07 03:41:59;;;;;;;9.50;2.47;;;;;;;;;;5033579;28;20029;-86
2021/12/07 03:44:24;;;;;;;8.57;2.10;;;;;;;;;;5031333;28;20033;-82
2021/12/07 03:46:50;;;;;;;10.23;2.40;;;;;;;;;;5033050;28;20021;-84
2021/12/07 03:49:15;;;;;;;8.35;2.22;;;;;;;;;;5035457;28;20033;-82
2021/12/07 03:51:40;;;;;;;7.32;1.98;;;;;;;;;;5053419;28;20075;-82
2021/12/07 03:54:06;;;;;;;9.48;2.25;;;;;;;;;;5030935;28;20024;-87
2021/12/07 03:56:32;;;;;;;8.82;2.22;;;;;;;;;;5031925;28;20123;-87
2021/12/07 03:58:58;;;;;;;12.35;2.83;;;;;;;;;;5029535;28;20047;-86
2021/12/07 04:01:23;;;;;;;9.10;2.33;;;;;;;;;;5030235;28;20038;-86
2021/12/07 04:03:52;;;;;;;12.40;2.30;;;;;;;;;;5040303;28;20112;-83
2021/12/07 04:06:18;;;;;;;10.52;2.40;;;;;;;;;;5035962;28;20074;-82
2021/12/07 04:08:45;;;;;;;9.82;2.40;;;;;;;;;;5037098;28;20159;-86
2021/12/07 04:11:10;;;;;;;7.65;2.90;;;;;;;;;;5048032;28;20085;-87
2021/12/07 04:13:36;;;;;;;12.00;2.78;;;;;;;;;;5033422;28;20094;-86
2021/12/07 04:16:02;;;;;;;7.90;2.20;;;;;;;;;;5030811;28;20632;-87
2021/12/07 04:18:28;;;;;;;10.07;2.30;;;;;;;;;;5033959;28;20106;-81
2021/12/07 04:20:53;;;;;;;6.15;1.98;;;;;;;;;;5033294;28;20032;-86
2021/12/07 04:23:19;;;;;;;9.85;2.75;;;;;;;;;;5044510;28;20029;-86
2021/12/07 04:25:44;;;;;;;7.50;1.90;;;;;;;;;;5045282;28;20053;-83
2021/12/07 04:28:10;;;;;;;8.82;2.05;;;;;;;;;;5028438;28;20021;-86
2021/12/07 04:30:39;;;;;;;7.57;2.22;;;;;;;;;;5025969;28;20028;-87
2021/12/07 04:33:07;;;;;;;8.35;2.50;;;;;;;;;;5032086;28;20414;-85
2021/12/07 04:35:33;;;;;;;8.13;2.28;;;;;;;;;;5043568;28;20024;-82
2021/12/07 04:37:59;;;;;;;9.18;2.30;;;;;;;;;;5029919;28;20021;-87
2021/12/07 04:40:28;;;;;;;4.63;2.00;;;;;;;;;;5052861;28;20028;-83
2021/12/07 04:42:55;;;;;;;6.30;1.80;;;;;;;;;;5030402;28;20535;-86
2021/12/07 04:45:37;;;;;;;10.18;1.90;;;;;;;;;;5051264;28;20078;-83
2021/12/07 04:59:01;;;;;;;9.00;2.28;;;;;;;;;;5045534;28;20103;-82
2021/12/07 05:01:27;;;;;;;8.88;2.17;;;;;;;;;;5050115;28;20029;-85
2021/12/07 05:03:56;;;;;;;8.35;1.90;;;;;;;;;;5033141;28;20072;-82
2021/12/07 05:06:26;;;;;;;6.68;1.80;;;;;;;;;;5033187;28;20024;-84
2021/12/07 05:08:58;;;;;;;4.18;1.70;;;;;;;;;;5029365;28;20029;-83
2021/12/07 05:11:32;;;;;;;7.15;2.10;;;;;;;;;;5044957;28;20053;-83
2021/12/07 05:14:13;;;;;;;10.68;2.35;;;;;;;;;;5043877;28;20025;-85
2021/12/07 05:17:01;;;;;;;7.70;2.05;;;;;;;;;;5051169;28;20033;-85
2021/12/07 05:38:21;;;;;;;12.82;2.10;;;;;;;;;;5053417;28;20503;-83
2021/12/07 05:40:46;;;;;;;6.32;2.40;;;;;;;;;;5055743;28;20025;-86
2021/12/07 05:43:11;;;;;;;7.03;1.88;;;;;;;;;;5050998;28;20036;-83
2021/12/07 05:45:38;;;;;;;7.55;1.67;;;;;;;;;;5048076;28;20033;-86
2021/12/07 05:48:06;;;;;;;5.60;1.60;;;;;;;;;;5055723;28;20048;-81
2021/12/07 05:50:33;;;;;;;8.98;2.00;;;;;;;;;;5052993;28;20029;-81
2021/12/07 05:53:00;;;;;;;7.15;2.20;;;;;;;;;;5046904;28;20499;-81
2021/12/07 05:55:26;;;;;;;4.72;1.90;;;;;;;;;;5053663;28;20043;-86
2021/12/07 05:57:53;;;;;;;9.20;2.10;;;;;;;;;;5042078;28;20048;-86
2021/12/07 06:00:26;;;;;;;6.57;1.88;;;;;;;;;;5052570;28;20028;-86
2021/12/07 06:03:01;;;;;;;7.00;1.90;;;;;;;;;;5052707;28;20025;-82
2021/12/07 06:05:28;;;;;;;5.82;1.50;;;;;;;;;;5052733;28;20112;-81
2021/12/07 06:07:55;;;;;;;6.50;1.50;;;;;;;;;;5050101;28;20522;-83
2021/12/07 06:10:21;;;;;;;5.95;1.90;;;;;;;;;;5050794;28;20060;-82
2021/12/07 06:12:46;;;;;;;8.75;2.17;;;;;;;;;;5050945;28;20395;-85
2021/12/07 06:15:14;;;;;;;10.32;2.30;;;;;;;;;;5030802;28;20032;-86
2021/12/07 06:17:39;;;;;;;8.30;1.50;;;;;;;;;;5037971;28;20692;-85
2021/12/07 06:20:06;;;;;;;7.40;1.60;;;;;;;;;;5034715;28;20035;-85
2021/12/07 06:22:31;;;;;;;9.23;1.58;;;;;;;;;;5020099;28;20033;-83
2021/12/07 06:24:56;;;;;;;5.20;1.65;;;;;;;;;;5029257;28;20033;-82
2021/12/07 06:27:22;;;;;;;4.22;1.50;;;;;;;;;;5034119;28;20079;-86
2021/12/07 06:29:47;;;;;;;7.18;1.73;;;;;;;;;;5036747;28;20416;-82
2021/12/07 06:32:13;;;;;;;5.43;1.50;;;;;;;;;;5048421;28;20029;-85
2021/12/07 06:34:38;;;;;;;5.60;1.40;;;;;;;;;;5033339;28;20124;-85
2021/12/07 06:37:04;;;;;;;5.88;1.60;;;;;;;;;;5031354;28;20507;-85
2021/12/07 06:39:30;;;;;;;9.80;1.77;;;;;;;;;;5035390;28;20481;-83
2021/12/07 06:41:55;;;;;;;8.07;1.90;;;;;;;;;;5050450;28;20040;-85
2021/12/07 06:44:21;;;;;;;9.85;2.28;;;;;;;;;;5034125;28;20029;-81
2021/12/07 06:46:48;;;;;;;11.10;2.03;;;;;;;;;;5031611;28;20022;-81
2021/12/07 06:49:15;;;;;;;6.97;2.20;;;;;;;;;;5032580;28;20520;-82
2021/12/07 06:51:41;;;;;;;9.65;1.92;;;;;;;;;;5054480;28;20473;-82
2021/12/07 06:54:07;;;;;;;10.20;2.42;;;;;;;;;;5037003;28;20025;-82
2021/12/07 06:56:32;;;;;;;9.73;2.33;;;;;;;;;;5031690;28;20096;-81
2021/12/07 06:58:58;;;;;;;10.25;2.47;;;;;;;;;;5033816;28;20387;-82
2021/12/07 07:01:23;;;;;;;6.25;2.10;;;;;;;;;;5028934;28;20037;-85
2021/12/07 07:03:49;;;;;;;12.73;2.50;;;;;;;;;;5029219;28;20434;-85
2021/12/07 07:06:14;;;;;;;9.82;2.58;;;;;;;;;;5029588;28;20487;-82
2021/12/07 07:08:40;;;;;;;13.77;3.08;;;;;;;;;;5047409;28;20040;-85
2021/12/07 07:11:05;;;;;;;9.40;2.35;;;;;;;;;;5047366;28;20052;-85
2021/12/07 07:13:31;;;;;;;9.35;2.63;;;;;;;;;;5029320;28;20021;-85
2021/12/07 07:15:58;;;;;;;10.57;2.40;;;;;;;;;;5029909;28;20025;-84
2021/12/07 07:18:23;;;;;;;8.90;2.65;;;;;;;;;;5030909;28;20029;-81
2021/12/07 07:20:48;;;;;;;11.73;2.47;;;;;;;;;;5026082;28;20082;-84
2021/12/07 07:23:14;;;;;;;8.90;2.20;;;;;;;;;;5027440;28;20477;-81
2021/12/07 07:25:39;;;;;;;5.80;2.22;;;;;;;;;;5053923;28;20071;-84
2021/12/07 07:28:05;;;;;;;6.75;2.28;;;;;;;;;;5035816;28;20047;-80
2021/12/07 07:30:30;;;;;;;12.85;2.30;;;;;;;;;;5033363;28;20025;-82
2021/12/07 07:32:55;;;;;;;8.73;2.00;;;;;;;;;;5035591;28;20040;-81
2021/12/07 07:35:22;;;;;;;5.57;2.20;;;;;;;;;;5035643;28;20415;-85
2021/12/07 07:37:47;;;;;;;7.68;2.67;;;;;;;;;;5029535;28;20473;-85
2021/12/07 07:40:17;;;;;;;8.27;2.63;;;;;;;;;;5028880;28;20036;-85
2021/12/07 07:42:43;;;;;;;8.25;2.83;;;;;;;;;;5025793;28;20033;-86
2021/12/07 07:45:09;;;;;;;8.73;2.88;;;;;;;;;;5027447;28;20021;-82
2021/12/07 07:47:34;;;;;;;10.23;3.50;;;;;;;;;;5051411;28;20024;-86
2021/12/07 07:49:59;;;;;;;12.05;3.90;;;;;;;;;;5029102;28;20473;-81
2021/12/07 07:52:25;;;;;;;7.43;4.20;;;;;;;;;;5030962;28;20030;-84
2021/12/07 07:54:50;;;;;;;9.23;3.65;;;;;;;;;;5027892;28;20396;-82
2021/12/07 07:57:16;;;;;;;9.25;3.60;;;;;;;;;;5033913;28;20059;-84
2021/12/07 07:59:41;;;;;;;11.73;4.18;;;;;;;;;;5029727;28;20111;-85
2021/12/07 08:02:07;;;;;;;10.82;4.25;;;;;;;;;;5033315;28;20025;-85
2021/12/07 08:04:34;;;;;;;15.25;4.43;;;;;;;;;;5030887;28;20542;-80
2021/12/07 08:07:00;;;;;;;11.57;4.20;;;;;;;;;;5031739;28;20472;-82
2021/12/07 08:09:25;;;;;;;11.55;4.70;;;;;;;;;;5052204;28;20033;-85
2021/12/07 08:11:51;;;;;;;10.85;4.30;;;;;;;;;;5045120;28;20052;-84
2021/12/07 08:14:17;;;;;;;11.63;4.15;;;;;;;;;;5044468;28;20059;-84
2021/12/07 08:16:43;;;;;;;11.63;4.05;;;;;;;;;;5057244;28;20483;-82
2021/12/07 08:19:09;;;;;;;12.77;4.45;;;;;;;;;;5048646;28;20017;-82
2021/12/07 08:21:35;;;;;;;16.20;5.68;;;;;;;;;;5048468;28;20029;-82
2021/12/07 08:24:00;;;;;;;13.77;5.05;;;;;;;;;;5065743;28;20481;-82
2021/12/07 08:26:26;;;;;;;14.27;5.50;;;;;;;;;;5047778;28;20373;-80
2021/12/07 08:28:52;;;;;;;13.30;5.05;;;;;;;;;;5048085;28;20021;-80
2021/12/07 08:31:17;;;;;;;14.10;4.97;;;;;;;;;;5045451;28;20025;-85
2021/12/07 08:33:43;;;;;;;12.55;5.00;;;;;;;;;;5051031;28;20428;-84
2021/12/07 08:36:08;;;;;;;17.45;6.00;;;;;;;;;;5050655;28;20029;-80
2021/12/07 08:38:34;;;;;;;11.18;5.40;;;;;;;;;;5048734;28;20032;-84
2021/12/07 08:40:59;;;;;;;16.50;5.15;;;;;;;;;;5051443;28;20090;-85
2021/12/07 08:43:31;;;;;;;16.70;5.78;;;;;;;;;;5051328;28;20488;-84
2021/12/07 08:45:59;;;;;;;14.90;5.30;;;;;;;;;;5041758;28;20484;-85
2021/12/07 08:48:25;;;;;;;18.70;5.78;;;;;;;;;;5042134;28;20028;-85
2021/12/07 08:50:52;;;;;;;16.20;5.80;;;;;;;;;;5050108;28;20487;-82
2021/12/07 08:53:19;;;;;;;14.15;5.25;;;;;;;;;;5042844;28;20100;-85
2021/12/07 09:01:18;;;;;;;12.32;5.30;;;;;;;;;;5049186;28;20460;-82
2021/12/07 09:03:45;;;;;;;14.10;5.00;;;;;;;;;;5051907;28;20063;-82
2021/12/07 09:06:11;;;;;;;18.20;5.35;;;;;;;;;;5048294;28;20025;-82
2021/12/07 09:08:37;;;;;;;13.63;5.28;;;;;;;;;;5049152;28;20154;-85
2021/12/07 09:11:04;;;;;;;20.30;6.38;;;;;;;;;;5038105;28;20525;-82
2021/12/07 09:13:29;;;;;;;17.02;5.75;;;;;;;;;;5047572;28;20091;-80
2021/12/07 09:15:56;;;;;;;16.40;5.57;;;;;;;;;;5045954;28;20031;-82
2021/12/07 09:18:22;;;;;;;16.13;5.65;;;;;;;;;;5051382;28;20480;-82
2021/12/07 09:20:48;;;;;;;19.85;5.93;;;;;;;;;;5054023;28;20029;-83
2021/12/07 09:23:13;;;;;;;10.82;4.72;;;;;;;;;;5047348;28;20023;-85
2021/12/07 09:25:39;;;;;;;16.63;5.75;;;;;;;;;;5043860;28;20045;-83
2021/12/07 09:28:05;;;;;;;16.70;5.68;;;;;;;;;;5048234;28;20017;-85
2021/12/07 09:30:31;;;;;;;15.73;6.25;;;;;;;;;;5049929;28;20024;-86
2021/12/07 09:32:56;;;;;;;13.52;5.55;;;;;;;;;;5068164;28;20029;-83
2021/12/07 09:35:23;;;;;;;14.75;5.13;;;;;;;;;;5050334;28;20036;-83
2021/12/07 09:37:51;;;;;;;15.15;5.70;;;;;;;;;;5064176;28;20086;-86
2021/12/07 09:40:21;;;;;;;15.25;5.57;;;;;;;;;;5049233;28;20033;-86
2021/12/07 09:42:47;;;;;;;17.67;5.65;;;;;;;;;;5039280;28;20124;-86
2021/12/07 09:45:15;;;;;;;16.20;6.95;;;;;;;;;;5044776;28;20029;-81
2021/12/07 09:47:40;;;;;;;17.17;6.45;;;;;;;;;;5045796;28;20036;-81
2021/12/07 09:50:08;;;;;;;14.48;5.15;;;;;;;;;;5049920;28;20044;-86
2021/12/07 09:52:34;;;;;;;11.90;5.18;;;;;;;;;;5030432;28;20041;-86
2021/12/07 09:54:59;;;;;;;14.00;5.30;;;;;;;;;;5044570;28;20027;-86
2021/12/07 09:57:25;;;;;;;11.55;4.90;;;;;;;;;;5051088;28;20415;-84
2021/12/07 09:59:53;;;;;;;15.20;5.22;;;;;;;;;;5046243;28;20025;-85
2021/12/07 10:02:18;;;;;;;17.25;5.20;;;;;;;;;;5050767;28;20037;-85
2021/12/07 10:04:45;;;;;;;10.57;4.50;;;;;;;;;;5046361;28;20032;-86
2021/12/07 10:07:11;;;;;;;14.00;5.03;;;;;;;;;;5046344;28;20116;-87
2021/12/07 10:09:37;;;;;;;14.82;4.90;;;;;;;;;;5042580;28;20549;-86
2021/12/07 10:12:04;;;;;;;10.80;4.63;;;;;;;;;;5046451;28;20277;-86
2021/12/07 10:14:40;;;;;;;13.68;4.40;;;;;;;;;;5047649;28;20496;-83
2021/12/07 10:17:06;;;;;;;14.98;4.88;;;;;;;;;;5052579;28;20017;-86
2021/12/07 10:19:37;;;;;;;12.95;4.30;;;;;;;;;;5036133;28;20020;-84
2021/12/07 10:22:06;;;;;;;9.40;3.83;;;;;;;;;;5046225;28;20096;-82
2021/12/07 10:24:47;;;;;;;12.13;4.30;;;;;;;;;;5051987;28;20052;-87
2021/12/07 10:27:13;;;;;;;13.43;4.35;;;;;;;;;;5054992;28;20032;-87
2021/12/07 10:29:39;;;;;;;10.60;3.67;;;;;;;;;;5051506;28;20025;-84
2021/12/07 10:32:07;;;;;;;9.30;3.60;;;;;;;;;;5038948;28;20033;-86
2021/12/07 10:34:36;;;;;;;11.68;4.28;;;;;;;;;;5052244;28;20448;-87
2021/12/07 10:37:13;;;;;;;11.80;4.82;;;;;;;;;;5053018;28;20124;-87
2021/12/07 10:39:46;;;;;;;10.55;3.95;;;;;;;;;;5042401;28;20111;-82
2021/12/07 10:42:21;;;;;;;10.93;3.60;;;;;;;;;;5050967;28;20021;-87
2021/12/07 10:44:48;;;;;;;14.82;4.63;;;;;;;;;;5050517;28;20025;-87
2021/12/07 10:47:16;;;;;;;10.77;3.80;;;;;;;;;;5064412;28;20029;-83
2021/12/07 10:49:50;;;;;;;9.80;4.00;;;;;;;;;;5046230;28;20068;-82
2021/12/07 10:52:30;;;;;;;10.18;3.63;;;;;;;;;;5042361;28;20029;-83
2021/12/07 10:55:16;;;;;;;14.32;3.70;;;;;;;;;;5062575;28;20033;-88
2021/12/07 10:58:01;;;;;;;13.40;3.35;;;;;;;;;;5046533;28;20029;-84
2021/12/07 11:00:30;;;;;;;7.30;2.92;;;;;;;;;;5048356;28;20067;-83
2021/12/07 11:02:59;;;;;;;11.48;4.03;;;;;;;;;;5053391;28;20068;-82
2021/12/07 11:05:39;;;;;;;9.73;3.65;;;;;;;;;;5053226;28;20044;-84
2021/12/07 11:08:07;;;;;;;10.95;3.60;;;;;;;;;;5050991;28;20088;-87
2021/12/07 11:10:37;;;;;;;10.88;3.70;;;;;;;;;;5041904;28;20042;-84
2021/12/07 11:13:12;;;;;;;14.30;3.88;;;;;;;;;;5030408;28;20033;-85
2021/12/07 11:15:49;;;;;;;12.98;3.53;;;;;;;;;;5035272;28;20108;-82
2021/12/07 11:18:16;;;;;;;12.82;3.70;;;;;;;;;;5037423;28;20021;-88
2021/12/07 11:20:41;;;;;;;11.07;3.70;;;;;;;;;;5022419;28;20107;-83
2021/12/07 11:23:17;;;;;;;10.25;3.90;;;;;;;;;;5031370;28;20127;-85
2021/12/07 11:31:36;;;;;;;8.95;3.80;;;;;;;;;;5055057;28;20112;-88
2021/12/07 11:34:09;;;;;;;13.05;4.28;;;;;;;;;;5046253;28;20117;-89
2021/12/07 11:36:42;;;;;;;12.23;4.00;;;;;;;;;;5031331;28;20506;-86
2021/12/07 11:39:46;;;;;;;12.30;3.50;;;;;;;;;;5024230;28;20052;-83
2021/12/07 11:42:21;;;;;;;11.13;3.55;;;;;;;;;;5005953;28;20038;-87
2021/12/07 11:44:48;;;;;;;9.43;3.72;;;;;;;;;;5037170;28;21354;-87
2021/12/07 11:47:13;;;;;;;11.38;3.33;;;;;;;;;;5036308;28;20404;-87
2021/12/07 11:49:39;;;;;;;7.47;3.08;;;;;;;;;;5034711;28;20029;-88
2021/12/07 11:52:07;;;;;;;11.68;3.72;;;;;;;;;;5026621;28;20029;-85
2021/12/07 11:54:36;;;;;;;12.80;4.03;;;;;;;;;;5031077;28;20029;-85
2021/12/07 11:57:04;;;;;;;14.95;4.00;;;;;;;;;;5032289;28;20017;-87
2021/12/07 11:59:29;;;;;;;11.43;3.53;;;;;;;;;;5027402;28;20037;-84
2021/12/07 12:01:55;;;;;;;10.15;3.92;;;;;;;;;;5031304;28;20484;-90
2021/12/07 12:04:21;;;;;;;8.18;3.10;;;;;;;;;;5036636;28;20025;-82
2021/12/07 12:06:53;;;;;;;15.82;3.25;;;;;;;;;;5032368;28;20029;-82
2021/12/07 12:09:19;;;;;;;8.82;3.40;;;;;;;;;;5032825;28;20049;-87
2021/12/07 12:11:54;;;;;;;10.90;3.65;;;;;;;;;;5037555;28;20037;-83
2021/12/07 12:14:38;;;;;;;9.98;3.20;;;;;;;;;;5044829;28;20048;-83
2021/12/07 12:17:08;;;;;;;10.85;3.47;;;;;;;;;;5056814;28;20025;-85
2021/12/07 12:20:02;;;;;;;12.30;3.35;;;;;;;;;;5047386;28;20024;-87
2021/12/07 12:22:40;;;;;;;11.63;3.53;;;;;;;;;;5051356;28;20112;-88
2021/12/07 12:25:18;;;;;;;8.75;3.15;;;;;;;;;;5047632;28;20037;-84
2021/12/07 12:27:46;;;;;;;13.18;3.03;;;;;;;;;;5051788;28;20060;-86
2021/12/07 12:30:23;;;;;;;12.43;3.42;;;;;;;;;;5050196;28;20024;-90
2021/12/07 12:32:54;;;;;;;9.70;3.20;;;;;;;;;;5064084;28;20462;-87
2021/12/07 12:35:51;;;;;;;9.55;3.38;;;;;;;;;;5040329;28;20029;-85
2021/12/07 12:38:26;;;;;;;10.55;3.00;;;;;;;;;;5040953;28;20029;-89
2021/12/07 12:40:56;;;;;;;9.85;3.20;;;;;;;;;;5049058;28;20087;-85
2021/12/07 12:43:42;;;;;;;11.93;3.50;;;;;;;;;;5037026;28;20075;-83
2021/12/07 12:46:10;;;;;;;13.70;3.67;;;;;;;;;;5050801;28;20047;-83
2021/12/07 12:48:36;;;;;;;12.35;3.70;;;;;;;;;;5051056;28;20477;-85
2021/12/07 12:51:06;;;;;;;13.38;3.60;;;;;;;;;;5040953;28;20032;-87
2021/12/07 12:53:34;;;;;;;10.60;3.60;;;;;;;;;;5047800;28;20108;-87
2021/12/07 12:56:02;;;;;;;11.35;4.32;;;;;;;;;;5048562;28;20480;-89
2021/12/07 12:58:28;;;;;;;12.82;3.83;;;;;;;;;;5063335;28;20029;-85
2021/12/07 13:01:09;;;;;;;9.23;3.35;;;;;;;;;;5050512;28;20056;-85
2021/12/07 13:04:05;;;;;;;8.63;3.60;;;;;;;;;;5044444;28;20388;-85
2021/12/07 13:06:34;;;;;;;9.40;3.20;;;;;;;;;;5048024;28;20035;-91
2021/12/07 13:09:05;;;;;;;11.75;3.38;;;;;;;;;;5051634;28;20025;-87
2021/12/07 13:11:41;;;;;;;10.15;3.25;;;;;;;;;;5049022;28;20504;-89
2021/12/07 13:14:29;;;;;;;13.40;3.92;;;;;;;;;;5052561;28;20112;-88
2021/12/07 13:17:35;;;;;;;13.88;3.95;;;;;;;;;;5050822;28;20711;-83
2021/12/07 13:20:29;;;;;;;10.48;3.90;;;;;;;;;;5039597;28;20085;-85
2021/12/07 13:23:00;;;;;;;16.42;4.90;;;;;;;;;;5042481;28;20029;-85
2021/12/07 13:25:33;;;;;;;12.60;3.88;;;;;;;;;;5047712;28;20033;-83
2021/12/07 13:28:04;;;;;;;16.80;4.25;;;;;;;;;;5034456;28;20025;-83
2021/12/07 13:30:45;;;;;;;13.77;4.00;;;;;;;;;;5048363;28;20040;-85
2021/12/07 13:33:16;;;;;;;12.13;3.63;;;;;;;;;;5047883;28;20036;-83
2021/12/07 13:35:42;;;;;;;10.18;2.95;;;;;;;;;;5041765;28;20062;-88
2021/12/07 13:38:15;;;;;;;14.77;3.53;;;;;;;;;;5049453;28;20086;-87
2021/12/07 13:40:41;;;;;;;7.38;2.95;;;;;;;;;;5049151;28;20033;-85
2021/12/07 13:43:06;;;;;;;9.35;2.72;;;;;;;;;;5046122;28;20507;-87
2021/12/07 13:45:32;;;;;;;14.88;3.00;;;;;;;;;;5045203;28;20053;-86
2021/12/07 13:47:59;;;;;;;8.98;2.67;;;;;;;;;;5041085;28;20083;-86
2021/12/07 13:50:29;;;;;;;8.90;2.65;;;;;;;;;;5051479;28;20025;-86
2021/12/07 13:52:56;;;;;;;12.15;2.95;;;;;;;;;;5047421;28;20456;-83
2021/12/07 13:55:28;;;;;;;13.57;3.33;;;;;;;;;;5051771;28;20028;-86
2021/12/07 13:58:01;;;;;;;9.98;2.58;;;;;;;;;;5054648;28;20518;-85
2021/12/07 14:03:28;;;;;;;10.70;2.95;;;;;;;;;;5055769;28;20039;-87
2021/12/07 14:05:59;;;;;;;6.57;2.60;;;;;;;;;;5052999;28;20468;-85
2021/12/07 14:08:28;;;;;;;13.20;2.47;;;;;;;;;;5048568;28;20017;-87
2021/12/07 14:10:56;;;;;;;10.23;2.45;;;;;;;;;;5042875;28;20061;-83
2021/12/07 14:13:22;;;;;;;5.18;2.03;;;;;;;;;;5031433;28;20107;-86
2021/12/07 14:15:50;;;;;;;12.38;2.72;;;;;;;;;;5032640;28;20021;-84
2021/12/07 14:18:20;;;;;;;10.52;2.20;;;;;;;;;;5022774;28;20130;-83
2021/12/07 14:20:48;;;;;;;9.32;2.28;;;;;;;;;;5044720;28;20029;-89
2021/12/07 14:23:20;;;;;;;8.52;2.28;;;;;;;;;;5024022;28;20025;-86
2021/12/07 14:25:59;;;;;;;9.30;2.50;;;;;;;;;;5028974;28;20083;-87
2021/12/07 14:28:37;;;;;;;8.38;2.00;;;;;;;;;;5037166;28;20026;-86
2021/12/07 14:31:13;;;;;;;8.88;2.20;;;;;;;;;;5027519;28;20055;-87
2021/12/07 14:33:44;;;;;;;10.57;2.20;;;;;;;;;;5030259;28;20572;-87
2021/12/07 14:36:12;;;;;;;9.27;2.25;;;;;;;;;;5022677;28;20024;-88
2021/12/07 14:38:38;;;;;;;14.15;2.42;;;;;;;;;;5018468;28;20025;-84
2021/12/07 14:41:10;;;;;;;10.15;2.42;;;;;;;;;;5032071;28;20040;-86
2021/12/07 14:43:37;;;;;;;7.33;2.10;;;;;;;;;;5028793;28;20029;-87
2021/12/07 14:46:04;;;;;;;7.18;2.10;;;;;;;;;;5028619;28;20408;-86
2021/12/07 14:48:36;;;;;;;9.13;2.33;;;;;;;;;;5046098;28;20037;-88
2021/12/07 14:51:37;;;;;;;11.38;2.53;;;;;;;;;;5013043;28;20033;-87
2021/12/07 14:54:05;;;;;;;9.13;2.40;;;;;;;;;;4984665;28;20088;-86
2021/12/07 14:56:37;;;;;;;9.15;2.30;;;;;;;;;;5023666;28;20025;-86
2021/12/07 14:59:09;;;;;;;10.25;3.20;;;;;;;;;;5019208;28;20399;-87
2021/12/07 15:01:39;;;;;;;11.05;3.42;;;;;;;;;;5021298;28;20399;-86
2021/12/07 15:04:11;;;;;;;11.77;2.88;;;;;;;;;;5031765;28;20035;-88
2021/12/07 15:06:40;;;;;;;11.20;3.20;;;;;;;;;;5028577;28;20037;-88
2021/12/07 15:09:07;;;;;;;9.50;2.53;;;;;;;;;;5047579;28;20059;-86
2021/12/07 15:11:38;;;;;;;10.88;2.45;;;;;;;;;;5026105;28;20057;-88
2021/12/07 15:14:05;;;;;;;8.23;2.45;;;;;;;;;;5040146;28;20032;-87
2021/12/07 15:16:31;;;;;;;9.65;2.92;;;;;;;;;;5046780;28;20075;-85
2021/12/07 15:18:58;;;;;;;11.43;3.03;;;;;;;;;;5044177;28;20051;-86
2021/12/07 15:21:28;;;;;;;9.40;3.40;;;;;;;;;;5037493;28;20961;-85
2021/12/07 15:23:56;;;;;;;9.23;3.25;;;;;;;;;;5040187;28;20037;-87
2021/12/07 15:26:25;;;;;;;13.93;3.13;;;;;;;;;;5038356;28;20092;-86
2021/12/07 15:28:57;;;;;;;8.48;2.65;;;;;;;;;;5041210;28;20029;-89
2021/12/07 15:31:25;;;;;;;8.18;2.65;;;;;;;;;;5047241;28;20617;-87
2021/12/07 15:33:52;;;;;;;9.57;2.75;;;;;;;;;;5044593;28;20033;-85
2021/12/07 15:36:20;;;;;;;10.23;2.83;;;;;;;;;;5043502;28;20032;-85
2021/12/07 15:38:46;;;;;;;12.48;2.83;;;;;;;;;;5044881;28;20453;-85
2021/12/07 15:41:11;;;;;;;10.82;3.00;;;;;;;;;;5044761;28;20047;-88
2021/12/07 15:43:43;;;;;;;10.70;3.13;;;;;;;;;;5046445;28;20116;-88
2021/12/07 15:46:15;;;;;;;8.15;2.83;;;;;;;;;;5041831;28;20033;-85
2021/12/07 15:48:43;;;;;;;11.80;2.80;;;;;;;;;;5043394;28;20055;-84
2021/12/07 15:51:08;;;;;;;15.65;3.10;;;;;;;;;;5041926;28;20032;-87
2021/12/07 15:53:34;;;;;;;6.00;2.45;;;;;;;;;;5031671;28;20079;-88
2021/12/07 15:55:59;;;;;;;11.05;3.03;;;;;;;;;;5044332;28;20035;-87
2021/12/07 15:58:25;;;;;;;10.30;2.58;;;;;;;;;;5040697;28;20040;-86
2021/12/07 16:00:57;;;;;;;11.27;2.95;;;;;;;;;;5041315;28;20063;-87
2021/12/07 16:03:26;;;;;;;12.63;2.88;;;;;;;;;;5044649;28;20120;-86
2021/12/07 16:05:56;;;;;;;8.90;2.55;;;;;;;;;;5039251;28;20518;-87
2021/12/07 16:08:27;;;;;;;7.25;2.90;;;;;;;;;;5042808;28;20028;-86
2021/12/07 16:10:55;;;;;;;5.15;2.53;;;;;;;;;;5028580;28;20052;-87
2021/12/07 16:13:27;;;;;;;10.20;3.13;;;;;;;;;;5017147;28;20034;-84
2021/12/07 16:15:55;;;;;;;11.93;2.92;;;;;;;;;;5021298;28;20039;-86
2021/12/07 16:18:22;;;;;;;10.30;2.67;;;;;;;;;;5023558;28;20056;-86
2021/12/07 16:20:48;;;;;;;8.70;2.85;;;;;;;;;;5026404;28;20107;-85
2021/12/07 16:23:13;;;;;;;8.38;2.70;;;;;;;;;;5032632;28;20070;-84
2021/12/07 16:25:39;;;;;;;9.75;2.58;;;;;;;;;;5030860;28;20037;-83
2021/12/07 16:28:09;;;;;;;6.80;2.45;;;;;;;;;;5045440;28;20472;-86
2021/12/07 16:30:35;;;;;;;9.60;2.60;;;;;;;;;;5025294;28;20037;-87
2021/12/07 16:33:01;;;;;;;12.63;4.10;;;;;;;;;;5033738;28;20025;-86